createdAt,value
2018-06-09T00:00:48.287Z,30.67
2018-06-09T00:03:16.938Z,30.20
2018-06-09T00:05:45.575Z,25.73
2018-06-09T00:08:14.210Z,33.00
2018-06-09T00:10:42.866Z,29.47
2018-06-09T00:13:11.590Z,30.80
2018-06-09T00:15:40.261Z,32.03
2018-06-09T00:18:08.874Z,33.53
2018-06-09T00:20:37.531Z,28.77
2018-06-09T00:23:06.127Z,31.97
2018-06-09T00:25:34.746Z,28.47
2018-06-09T00:28:03.434Z,33.97
2018-06-09T00:30:31.957Z,25.50
2018-06-09T00:33:00.683Z,30.47
2018-06-09T00:35:29.256Z,28.77
2018-06-09T00:37:57.826Z,28.47
2018-06-09T00:40:26.469Z,29.83
2018-06-09T00:42:55.067Z,32.03
2018-06-09T00:45:23.772Z,33.93
2018-06-09T00:47:52.421Z,41.73
2018-06-09T00:50:21.126Z,46.10
2018-06-09T00:52:49.717Z,43.43
2018-06-09T00:55:18.400Z,41.57
2018-06-09T00:57:46.990Z,39.60
2018-06-09T01:00:15.587Z,39.63
2018-06-09T01:02:44.155Z,28.67
2018-06-09T01:05:12.791Z,28.50
2018-06-09T01:07:41.455Z,25.07
2018-06-09T01:10:10.106Z,24.97
2018-06-09T01:12:38.789Z,27.30
2018-06-09T01:15:07.395Z,27.97
2018-06-09T01:17:36.156Z,29.00
2018-06-09T01:20:04.778Z,28.07
2018-06-09T01:22:33.426Z,25.10
2018-06-09T01:25:02.088Z,28.23
2018-06-09T01:27:30.724Z,27.13
2018-06-09T01:29:59.399Z,25.03
2018-06-09T01:32:27.985Z,28.73
2018-06-09T01:34:56.680Z,22.17
2018-06-09T01:37:25.361Z,22.63
2018-06-09T01:39:54.094Z,27.20
2018-06-09T01:42:22.722Z,25.60
2018-06-09T01:44:51.323Z,30.37
2018-06-09T01:47:19.955Z,29.57
2018-06-09T01:49:48.546Z,29.40
2018-06-09T01:52:17.120Z,28.53
2018-06-09T01:54:45.774Z,24.10
2018-06-09T01:57:14.307Z,28.20
2018-06-09T01:59:52.498Z,33.10
2018-06-09T02:02:21.103Z,24.13
2018-06-09T02:04:49.417Z,24.47
2018-06-09T02:07:17.972Z,24.37
2018-06-09T02:09:46.767Z,24.40
2018-06-09T02:12:15.429Z,28.07
2018-06-09T02:14:44.055Z,29.53
2018-06-09T02:17:12.676Z,33.80
2018-06-09T02:19:42.351Z,34.27
2018-06-09T02:22:11.193Z,33.90
2018-06-09T02:24:39.762Z,31.90
2018-06-09T02:27:08.390Z,30.87
2018-06-09T02:29:40.341Z,34.70
2018-06-09T02:32:08.894Z,33.50
2018-06-09T02:34:37.544Z,34.53
2018-06-09T02:37:06.167Z,33.47
2018-06-09T02:39:34.764Z,31.77
2018-06-09T02:42:03.406Z,33.80
2018-06-09T02:44:31.998Z,31.70
2018-06-09T02:47:00.584Z,30.40
2018-06-09T02:49:33.702Z,30.03
2018-06-09T02:52:02.322Z,29.80
2018-06-09T02:54:30.965Z,27.90
2018-06-09T02:56:59.751Z,29.53
2018-06-09T02:59:28.423Z,26.33
2018-06-09T03:01:57.059Z,26.73
2018-06-09T03:04:25.969Z,35.80
2018-06-09T03:06:54.709Z,33.80
2018-06-09T03:09:23.560Z,26.43
2018-06-09T03:11:52.157Z,27.63
2018-06-09T03:14:20.898Z,26.30
2018-06-09T03:16:49.501Z,23.33
2018-06-09T03:19:18.133Z,26.40
2018-06-09T03:21:46.749Z,24.83
2018-06-09T03:24:15.443Z,30.30
2018-06-09T03:26:44.002Z,22.77
2018-06-09T03:29:12.710Z,22.73
2018-06-09T03:31:41.356Z,24.50
2018-06-09T03:34:09.922Z,24.27
2018-06-09T03:36:38.535Z,19.97
2018-06-09T03:39:08.231Z,21.70
2018-06-09T03:41:36.811Z,25.50
2018-06-09T03:44:05.377Z,18.70
2018-06-09T03:46:33.902Z,23.90
2018-06-09T03:49:02.982Z,22.67
2018-06-09T03:51:31.562Z,24.80
2018-06-09T03:54:00.200Z,29.67
2018-06-09T03:56:28.801Z,26.27
2018-06-09T03:58:57.114Z,26.57
2018-06-09T04:01:25.751Z,23.60
2018-06-09T04:03:54.331Z,28.13
2018-06-09T04:06:23.090Z,27.47
2018-06-09T04:08:51.726Z,29.17
2018-06-09T04:11:20.329Z,27.40
2018-06-09T04:13:48.977Z,22.53
2018-06-09T04:16:17.591Z,20.73
2018-06-09T04:18:46.256Z,21.50
2018-06-09T04:21:14.576Z,19.40
2018-06-09T04:23:43.212Z,25.03
2018-06-09T04:26:11.800Z,26.77
2018-06-09T04:28:40.426Z,22.60
2018-06-09T04:31:09.102Z,20.33
2018-06-09T04:33:37.739Z,23.53
2018-06-09T04:36:06.362Z,25.10
2018-06-09T04:38:34.646Z,21.60
2018-06-09T04:41:03.350Z,24.30
2018-06-09T04:43:32.093Z,24.40
2018-06-09T04:46:00.757Z,21.63
2018-06-09T04:48:29.458Z,20.70
2018-06-09T04:50:58.079Z,23.07
2018-06-09T04:53:26.627Z,21.13
2018-06-09T04:55:55.350Z,20.93
2018-06-09T04:58:24.041Z,22.80
2018-06-09T05:00:52.706Z,23.60
2018-06-09T05:03:21.334Z,24.77
2018-06-09T05:05:49.993Z,26.17
2018-06-09T05:08:18.705Z,23.70
2018-06-09T05:10:47.383Z,26.13
2018-06-09T05:13:16.420Z,29.43
2018-06-09T05:15:45.073Z,25.00
2018-06-09T05:18:13.786Z,26.80
2018-06-09T05:20:42.481Z,21.83
2018-06-09T05:23:11.274Z,24.57
2018-06-09T05:25:40.022Z,25.97
2018-06-09T05:28:08.828Z,23.80
2018-06-09T05:30:37.891Z,26.47
2018-06-09T05:33:06.256Z,23.47
2018-06-09T05:35:34.939Z,26.80
2018-06-09T05:38:03.752Z,29.03
2018-06-09T05:40:32.576Z,26.63
2018-06-09T05:43:01.531Z,26.97
2018-06-09T05:45:30.121Z,27.23
2018-06-09T05:47:59.812Z,25.37
2018-06-09T05:50:28.728Z,22.60
2018-06-09T05:52:57.779Z,22.03
2018-06-09T05:55:26.525Z,23.00
2018-06-09T05:57:55.311Z,22.70
2018-06-09T06:00:24.627Z,22.40
2018-06-09T06:02:53.422Z,22.33
2018-06-09T06:05:22.288Z,24.10
2018-06-09T06:07:50.912Z,21.07
2018-06-09T06:10:19.694Z,23.20
2018-06-09T06:12:48.555Z,23.10
2018-06-09T06:15:17.625Z,24.17
2018-06-09T06:17:46.258Z,29.20
2018-06-09T06:20:14.856Z,22.30
2018-06-09T06:22:43.562Z,24.50
2018-06-09T06:25:12.868Z,21.27
2018-06-09T06:27:51.017Z,21.83
2018-06-09T06:30:19.656Z,22.23
2018-06-09T06:32:48.234Z,24.77
2018-06-09T06:35:22.656Z,23.10
2018-06-09T06:37:51.265Z,27.27
2018-06-09T06:40:20.465Z,24.90
2018-06-09T06:42:49.027Z,27.33
2018-06-09T06:45:17.597Z,27.70
2018-06-09T06:47:46.441Z,27.50
2018-06-09T06:50:15.046Z,26.63
2018-06-09T06:52:43.840Z,26.23
2018-06-09T06:55:12.384Z,23.47
2018-06-09T06:57:41.079Z,25.50
2018-06-09T07:00:09.874Z,24.17
2018-06-09T07:02:38.743Z,25.93
2018-06-09T07:05:07.582Z,24.53
2018-06-09T07:07:36.108Z,23.57
2018-06-09T07:10:04.826Z,24.57
2018-06-09T07:12:33.434Z,24.40
2018-06-09T07:15:02.084Z,26.23
2018-06-09T07:17:30.920Z,29.87
2018-06-09T07:19:59.538Z,26.30
2018-06-09T07:22:28.198Z,26.90
2018-06-09T07:24:56.952Z,23.30
2018-06-09T07:27:25.755Z,21.60
2018-06-09T07:29:54.560Z,22.77
2018-06-09T07:32:23.319Z,23.07
2018-06-09T07:34:51.906Z,23.60
2018-06-09T07:37:20.560Z,22.00
2018-06-09T07:39:49.219Z,24.80
2018-06-09T07:42:17.942Z,19.83
2018-06-09T07:44:46.614Z,21.77
2018-06-09T07:47:15.268Z,21.70
2018-06-09T07:49:44.092Z,21.07
2018-06-09T07:52:12.841Z,21.97
2018-06-09T07:54:42.012Z,20.40
2018-06-09T07:57:10.662Z,26.53
2018-06-09T07:59:39.480Z,21.80
2018-06-09T08:02:08.051Z,22.27
2018-06-09T08:04:36.696Z,19.97
2018-06-09T08:07:05.430Z,21.93
2018-06-09T08:09:34.142Z,18.10
2018-06-09T08:12:02.819Z,21.30
2018-06-09T08:14:31.483Z,20.10
2018-06-09T08:17:00.264Z,18.73
2018-06-09T08:19:29.077Z,22.33
2018-06-09T08:21:57.690Z,23.37
2018-06-09T08:24:26.479Z,19.43
2018-06-09T08:26:55.272Z,19.13
2018-06-09T08:29:23.914Z,23.30
2018-06-09T08:31:52.634Z,20.30
2018-06-09T08:34:21.370Z,23.40
2018-06-09T08:36:50.083Z,22.93
2018-06-09T08:39:18.704Z,21.37
2018-06-09T08:41:47.490Z,24.03
2018-06-09T08:44:16.234Z,21.07
2018-06-09T08:46:44.850Z,19.67
2018-06-09T08:49:13.482Z,22.70
2018-06-09T08:51:42.199Z,21.63
2018-06-09T08:54:11.008Z,20.53
2018-06-09T08:56:39.641Z,19.40
2018-06-09T08:59:08.299Z,18.80
2018-06-09T09:01:37.074Z,20.70
2018-06-09T09:04:05.845Z,22.30
2018-06-09T09:06:35.046Z,22.03
2018-06-09T09:09:04.019Z,19.60
2018-06-09T09:11:32.754Z,20.57
2018-06-09T09:14:01.440Z,21.13
2018-06-09T09:16:30.192Z,20.10
2018-06-09T09:18:58.751Z,23.17
2018-06-09T09:21:27.574Z,21.67
2018-06-09T09:23:56.135Z,19.30
2018-06-09T09:26:24.884Z,17.00
2018-06-09T09:28:53.660Z,19.70
2018-06-09T09:31:22.355Z,18.53
2018-06-09T09:33:50.927Z,21.40
2018-06-09T09:36:19.832Z,21.40
2018-06-09T09:38:58.283Z,19.97
2018-06-09T09:41:27.142Z,19.43
2018-06-09T09:43:56.002Z,18.53
2018-06-09T09:46:24.617Z,19.40
2018-06-09T09:48:53.269Z,16.93
2018-06-09T09:51:22.765Z,20.83
2018-06-09T09:53:52.202Z,19.27
2018-06-09T09:56:21.050Z,19.07
2018-06-09T09:58:50.547Z,19.10
2018-06-09T10:01:19.509Z,18.10
2018-06-09T10:03:48.217Z,22.40
2018-06-09T10:06:17.128Z,22.50
2018-06-09T10:08:45.916Z,19.57
2018-06-09T10:11:16.006Z,17.50
2018-06-09T10:13:44.704Z,20.57
2018-06-09T10:16:13.380Z,23.47
2018-06-09T10:18:42.077Z,18.97
2018-06-09T10:21:10.988Z,19.47
2018-06-09T10:23:39.806Z,20.40
2018-06-09T10:26:09.314Z,19.97
2018-06-09T10:28:38.038Z,19.43
2018-06-09T10:31:06.711Z,20.30
2018-06-09T10:33:34.962Z,16.57
2018-06-09T10:36:03.724Z,22.73
2018-06-09T10:38:32.497Z,18.07
2018-06-09T10:41:01.174Z,20.63
2018-06-09T10:43:29.877Z,21.23
2018-06-09T10:45:58.485Z,18.97
2018-06-09T10:48:27.295Z,19.20
2018-06-09T10:50:56.166Z,20.47
2018-06-09T10:53:24.990Z,18.70
2018-06-09T10:55:53.706Z,21.77
2018-06-09T10:58:23.551Z,25.03
2018-06-09T11:00:52.338Z,20.47
2018-06-09T11:03:21.069Z,16.43
2018-06-09T11:05:49.735Z,18.03
2018-06-09T11:08:18.616Z,21.03
2018-06-09T11:10:46.950Z,16.97
2018-06-09T11:13:16.081Z,18.27
2018-06-09T11:15:44.882Z,18.87
2018-06-09T11:18:13.591Z,21.37
2018-06-09T11:20:42.174Z,20.70
2018-06-09T11:23:10.954Z,16.97
2018-06-09T11:25:39.603Z,16.50
2018-06-09T11:28:08.362Z,18.53
2018-06-09T11:30:36.958Z,17.77
2018-06-09T11:33:05.764Z,18.53
2018-06-09T11:35:34.812Z,19.10
2018-06-09T11:38:03.476Z,17.83
2018-06-09T11:40:32.497Z,18.67
2018-06-09T11:43:01.711Z,17.53
2018-06-09T11:45:30.289Z,16.70
2018-06-09T11:47:59.074Z,19.23
2018-06-09T11:50:28.203Z,17.67
2018-06-09T11:52:57.252Z,18.80
2018-06-09T11:55:26.292Z,15.10
2018-06-09T11:57:54.959Z,16.90
2018-06-09T12:00:31.829Z,19.27
2018-06-09T12:03:01.337Z,14.70
2018-06-09T12:05:30.483Z,19.13
2018-06-09T12:07:59.707Z,19.80
2018-06-09T12:10:29.564Z,18.80
2018-06-09T12:12:58.603Z,16.30
2018-06-09T12:15:27.878Z,16.40
2018-06-09T12:17:57.239Z,16.60
2018-06-09T12:20:27.430Z,19.33
2018-06-09T12:22:56.687Z,13.60
2018-06-09T12:25:26.353Z,16.80
2018-06-09T12:27:56.294Z,15.47
2018-06-09T12:30:25.415Z,16.17
2018-06-09T12:32:54.645Z,13.97
2018-06-09T12:35:25.146Z,19.43
2018-06-09T12:37:55.666Z,15.20
2018-06-09T12:43:20.425Z,16.90
2018-06-09T12:45:49.023Z,18.00
2018-06-09T12:48:17.574Z,16.60
2018-06-09T12:50:46.167Z,16.73
2018-06-09T12:53:14.753Z,19.40
2018-06-09T12:55:43.479Z,15.80
2018-06-09T12:59:02.182Z,16.20
2018-06-09T13:01:30.928Z,15.30
2018-06-09T13:03:59.499Z,19.70
2018-06-09T13:06:49.203Z,15.00
2018-06-09T13:09:17.712Z,19.93
2018-06-09T13:11:46.170Z,17.33
2018-06-09T13:14:15.526Z,18.33
2018-06-09T13:16:44.469Z,14.07
2018-06-09T13:19:13.841Z,16.90
2018-06-09T13:21:41.733Z,17.97
2018-06-09T13:24:10.266Z,16.67
2018-06-09T13:26:38.761Z,18.80
2018-06-09T13:29:07.226Z,17.53
2018-06-09T13:31:36.070Z,14.67
2018-06-09T13:34:04.777Z,19.23
2018-06-09T13:36:33.503Z,15.17
2018-06-09T13:39:02.021Z,15.80
2018-06-09T13:41:30.557Z,13.07
2018-06-09T13:43:59.070Z,17.63
2018-06-09T13:46:27.571Z,27.30
2018-06-09T13:48:56.414Z,15.53
2018-06-09T13:51:24.879Z,16.13
2018-06-09T13:53:53.792Z,18.40
2018-06-09T13:56:22.334Z,17.60
2018-06-09T13:58:50.879Z,17.10
2018-06-09T14:01:20.457Z,21.13
2018-06-09T14:03:48.990Z,18.33
2018-06-09T14:06:17.537Z,17.17
2018-06-09T14:08:46.357Z,17.00
2018-06-09T14:11:14.853Z,19.03
2018-06-09T14:13:43.865Z,17.20
2018-06-09T14:16:12.427Z,12.63
2018-06-09T14:18:40.918Z,17.40
2018-06-09T14:21:09.411Z,17.70
2018-06-09T14:23:37.920Z,20.20
2018-06-09T14:26:06.421Z,15.93
2018-06-09T14:28:34.902Z,13.60
2018-06-09T14:31:03.920Z,16.60
2018-06-09T14:33:32.871Z,12.17
2018-06-09T14:36:01.331Z,14.60
2018-06-09T14:38:29.848Z,14.30
2018-06-09T14:40:58.278Z,21.53
2018-06-09T14:43:27.307Z,20.03
2018-06-09T14:45:55.823Z,20.83
2018-06-09T14:48:24.302Z,22.10
2018-06-09T14:50:52.757Z,23.73
2018-06-09T14:53:21.281Z,24.80
2018-06-09T14:55:50.451Z,23.63
2018-06-09T14:58:19.419Z,22.40
2018-06-09T15:00:47.950Z,25.57
2018-06-09T15:03:16.406Z,26.80
2018-06-09T15:05:44.887Z,21.80
2018-06-09T15:08:13.418Z,18.43
2018-06-09T15:10:41.947Z,22.73
2018-06-09T15:13:10.450Z,23.90
2018-06-09T15:15:39.177Z,19.20
2018-06-09T15:18:07.758Z,23.97
2018-06-09T15:20:36.324Z,21.67
2018-06-09T15:23:05.011Z,23.10
2018-06-09T15:25:33.615Z,21.30
2018-06-09T15:28:02.230Z,18.30
2018-06-09T15:30:30.829Z,21.50
2018-06-09T15:32:59.519Z,19.83
2018-06-09T15:35:28.290Z,19.43
2018-06-09T15:37:56.880Z,18.17
2018-06-09T15:40:26.006Z,22.43
2018-06-09T15:42:54.610Z,19.63
2018-06-09T15:45:23.423Z,20.63
2018-06-09T15:47:52.199Z,17.33
2018-06-09T15:50:21.005Z,20.37
2018-06-09T15:52:49.718Z,19.90
2018-06-09T15:55:18.573Z,19.90
2018-06-09T15:57:47.121Z,19.37
2018-06-09T16:00:16.458Z,20.77
2018-06-09T16:02:44.973Z,20.40
2018-06-09T16:05:13.450Z,20.90
2018-06-09T16:07:42.275Z,18.47
2018-06-09T16:10:11.028Z,19.70
2018-06-09T16:12:39.755Z,21.57
2018-06-09T16:15:08.265Z,20.60
2018-06-09T16:17:36.749Z,21.37
2018-06-09T16:20:05.438Z,20.53
2018-06-09T16:22:34.429Z,21.10
2018-06-09T16:25:03.072Z,19.00
2018-06-09T16:27:31.647Z,22.73
2018-06-09T16:30:00.223Z,21.93
2018-06-09T16:32:29.045Z,22.93
2018-06-09T16:34:57.928Z,20.90
2018-06-09T16:37:27.351Z,22.17
2018-06-09T16:39:56.001Z,21.97
2018-06-09T16:42:25.967Z,24.53
2018-06-09T16:44:55.031Z,26.80
2018-06-09T16:47:23.883Z,24.13
2018-06-09T16:49:52.628Z,26.17
2018-06-09T16:52:21.495Z,24.13
2018-06-09T16:54:50.323Z,23.10
2018-06-09T16:57:19.187Z,21.63
2018-06-09T16:59:48.030Z,33.37
2018-06-09T17:02:16.597Z,24.27
2018-06-09T17:04:45.394Z,25.23
2018-06-09T17:07:14.412Z,19.97
2018-06-09T17:09:43.201Z,25.53
2018-06-09T17:12:11.826Z,24.53
2018-06-09T17:14:40.608Z,24.30
2018-06-09T17:17:09.295Z,22.30
2018-06-09T17:19:38.081Z,29.20
2018-06-09T17:22:06.880Z,25.13
2018-06-09T17:24:35.613Z,25.50
2018-06-09T17:27:04.196Z,21.47
2018-06-09T17:29:33.008Z,20.20
2018-06-09T17:32:01.839Z,19.87
2018-06-09T17:34:30.606Z,22.67
2018-06-09T17:36:59.275Z,20.93
2018-06-09T17:39:27.878Z,21.37
2018-06-09T17:41:57.251Z,22.70
2018-06-09T17:44:25.532Z,21.50
2018-06-09T17:46:54.129Z,21.00
2018-06-09T17:49:22.659Z,21.87
2018-06-09T17:51:51.244Z,22.73
2018-06-09T17:54:20.078Z,22.53
2018-06-09T17:56:48.809Z,18.40
2018-06-09T17:59:17.607Z,21.03
2018-06-09T18:01:45.815Z,21.60
2018-06-09T18:04:14.474Z,20.60
2018-06-09T18:06:43.314Z,17.40
2018-06-09T18:09:12.074Z,19.43
2018-06-09T18:11:40.875Z,23.60
2018-06-09T18:14:09.708Z,19.23
2018-06-09T18:16:38.381Z,20.20
2018-06-09T18:19:06.755Z,19.30
2018-06-09T18:21:35.662Z,19.50
2018-06-09T18:24:04.230Z,20.77
2018-06-09T18:26:32.843Z,22.50
2018-06-09T18:29:01.633Z,23.73
2018-06-09T18:31:30.143Z,23.50
2018-06-09T18:33:58.767Z,21.20
2018-06-09T18:36:27.738Z,21.33
2018-06-09T18:38:57.088Z,24.80
2018-06-09T18:41:25.855Z,23.80
2018-06-09T18:43:54.636Z,22.00
2018-06-09T18:46:23.432Z,22.80
2018-06-09T18:48:51.989Z,23.97
2018-06-09T18:51:20.811Z,26.90
2018-06-09T18:53:49.587Z,25.00
2018-06-09T18:56:18.518Z,24.37
2018-06-09T18:58:47.336Z,24.63
2018-06-09T19:01:16.036Z,31.10
2018-06-09T19:03:44.585Z,27.20
2018-06-09T19:06:13.393Z,25.77
2018-06-09T19:08:42.002Z,30.83
2018-06-09T19:11:10.595Z,28.00
2018-06-09T19:13:39.315Z,26.47
2018-06-09T19:16:07.840Z,27.60
2018-06-09T19:18:36.674Z,27.13
2018-06-09T19:21:05.423Z,27.00
2018-06-09T19:23:34.193Z,29.93
2018-06-09T19:26:03.022Z,31.20
2018-06-09T19:28:31.378Z,29.10
2018-06-09T19:31:00.095Z,29.20
2018-06-09T19:33:28.706Z,26.17
2018-06-09T19:35:57.707Z,28.17
2018-06-09T19:38:27.306Z,27.17
2018-06-09T19:40:56.398Z,27.20
2018-06-09T19:43:25.007Z,34.33
2018-06-09T19:45:54.936Z,29.77
2018-06-09T19:48:23.502Z,26.63
2018-06-09T19:50:52.049Z,28.70
2018-06-09T19:53:20.497Z,24.30
2018-06-09T19:55:48.959Z,28.57
2018-06-09T19:58:17.405Z,29.07
2018-06-09T20:00:45.865Z,23.97
2018-06-09T20:03:14.344Z,29.30
2018-06-09T20:05:42.817Z,25.30
2018-06-09T20:08:11.820Z,25.20
2018-06-09T20:10:40.289Z,29.00
2018-06-09T20:13:08.746Z,27.20
2018-06-09T20:15:37.614Z,26.00
2018-06-09T20:18:06.082Z,26.60
2018-06-09T20:20:34.493Z,29.40
2018-06-09T20:23:02.959Z,28.27
2018-06-09T20:25:31.565Z,30.40
2018-06-09T20:28:00.130Z,27.37
2018-06-09T20:30:28.564Z,23.77
2018-06-09T20:32:57.252Z,23.50
2018-06-09T20:35:25.833Z,31.27
2018-06-09T20:37:54.275Z,28.57
2018-06-09T20:40:22.713Z,26.83
2018-06-09T20:42:51.380Z,27.70
2018-06-09T20:45:19.818Z,25.20
2018-06-09T20:47:48.845Z,26.33
2018-06-09T20:50:17.308Z,28.30
2018-06-09T20:52:45.713Z,30.73
2018-06-09T20:55:14.165Z,27.90
2018-06-09T20:57:42.580Z,25.00
2018-06-09T21:00:11.005Z,28.37
2018-06-09T21:02:39.466Z,27.83
2018-06-09T21:05:07.897Z,25.70
2018-06-09T21:07:36.328Z,27.60
2018-06-09T21:10:04.774Z,27.23
2018-06-09T21:12:33.230Z,26.53
2018-06-09T21:15:01.637Z,29.37
2018-06-09T21:17:30.077Z,30.63
2018-06-09T21:19:58.600Z,27.80
2018-06-09T21:22:26.986Z,29.30
2018-06-09T21:24:55.418Z,27.50
2018-06-09T21:27:33.782Z,31.97
2018-06-09T21:30:07.633Z,32.37
2018-06-09T21:32:41.338Z,31.07
2018-06-09T21:35:26.286Z,34.50
2018-06-09T21:37:58.910Z,32.47
2018-06-09T21:40:31.713Z,37.00
2018-06-09T21:43:05.510Z,32.83
2018-06-09T21:45:39.158Z,35.73
2018-06-09T21:48:07.594Z,33.33
2018-06-09T21:50:36.033Z,32.17
2018-06-09T21:53:04.585Z,33.43
2018-06-09T21:55:33.994Z,34.17
2018-06-09T21:58:02.402Z,33.07
2018-06-09T22:00:30.891Z,34.67
2018-06-09T22:02:59.330Z,32.47
2018-06-09T22:05:27.460Z,36.77
2018-06-09T22:07:55.929Z,32.70
2018-06-09T22:10:24.364Z,34.30
2018-06-09T22:12:53.082Z,41.50
2018-06-09T22:15:21.505Z,36.43
2018-06-09T22:17:49.937Z,38.03
2018-06-09T22:20:18.344Z,34.33
2018-06-09T22:22:47.011Z,32.00
2018-06-09T22:25:19.661Z,32.57
2018-06-09T22:27:48.787Z,32.23
2018-06-09T22:30:17.229Z,33.10
2018-06-09T22:32:45.658Z,36.90
2018-06-09T22:35:14.134Z,35.67
2018-06-09T22:37:42.537Z,35.00
2018-06-09T22:40:10.984Z,33.93
2018-06-09T22:42:39.398Z,33.77
2018-06-09T22:45:08.050Z,36.13
2018-06-09T22:47:36.495Z,35.87
2018-06-09T22:50:04.936Z,35.30
2018-06-09T22:52:33.345Z,31.17
2018-06-09T22:55:01.987Z,37.03
2018-06-09T22:57:30.637Z,35.90
2018-06-09T22:59:59.101Z,39.60
2018-06-09T23:02:27.581Z,38.03
2018-06-09T23:04:56.030Z,37.27
2018-06-09T23:07:24.460Z,39.07
2018-06-09T23:09:52.949Z,36.90
2018-06-09T23:12:21.349Z,37.67
2018-06-09T23:14:49.781Z,34.50
2018-06-09T23:17:18.221Z,37.30
2018-06-09T23:19:46.873Z,37.77
2018-06-09T23:22:15.357Z,36.50
2018-06-09T23:24:43.781Z,36.17
2018-06-09T23:27:12.210Z,40.80
2018-06-09T23:29:40.689Z,37.67
2018-06-09T23:32:09.343Z,38.50
2018-06-09T23:34:38.398Z,36.90
2018-06-09T23:37:06.950Z,38.47
2018-06-09T23:39:38.718Z,42.13
2018-06-09T23:42:07.223Z,35.20
2018-06-09T23:44:35.613Z,36.27
2018-06-09T23:47:03.730Z,34.90
2018-06-09T23:49:32.146Z,42.53
2018-06-09T23:52:00.614Z,36.73
2018-06-09T23:54:29.072Z,35.70
2018-06-09T23:56:57.489Z,37.17
2018-06-09T23:59:25.915Z,38.03
